Time;durP1;ratioP1;P1;durP2;ratioP2;P2;SDS_P1;SDS_P2;PMS_P1;PMS_P2;Temp;Humidity;BMP_temperature;BMP_pressure;BME280_temperature;BME280_humidity;BME280_pressure;Samples;Min_cycle;Max_cycle;Signal;HPM_P1;HPM_P2
2023/02/18 00:00:06;;;;;;;2.17;0.70;;;;;;;6.84;71.62;101472.75;5026388;28;20226;-79
2023/02/18 00:02:32;;;;;;;5.63;1.03;;;;;;;6.82;72.29;101477.03;5022928;28;20727;-78
2023/02/18 00:04:59;;;;;;;3.97;0.90;;;;;;;6.83;71.12;101469.28;5023685;28;20230;-80
2023/02/18 00:07:27;;;;;;;4.40;1.30;;;;;;;6.86;71.27;101466.75;5030294;28;20198;-79
2023/02/18 00:09:53;;;;;;;3.17;1.30;;;;;;;6.75;72.63;101469.19;5033300;28;20232;-80
2023/02/18 00:12:19;;;;;;;8.00;1.20;;;;;;;6.76;72.59;101457.09;5033820;28;20214;-79
2023/02/18 00:14:46;;;;;;;4.97;0.87;;;;;;;6.77;72.42;101453.63;5033619;28;20291;-80
2023/02/18 00:17:12;;;;;;;3.33;1.20;;;;;;;6.74;73.11;101448.44;5033326;28;20210;-80
2023/02/18 00:19:38;;;;;;;3.67;0.90;;;;;;;6.84;73.14;101426.03;5034260;28;20707;-80
2023/02/18 00:22:05;;;;;;;2.47;0.90;;;;;;;6.69;73.36;101425.00;5033244;28;20742;-81
2023/02/18 00:24:32;;;;;;;6.20;1.47;;;;;;;6.72;72.50;101422.47;5030143;28;20206;-80
2023/02/18 00:26:59;;;;;;;4.47;1.17;;;;;;;6.74;72.16;101425.94;5026917;28;20209;-79
2023/02/18 00:29:25;;;;;;;4.03;0.90;;;;;;;6.71;72.19;101425.88;5026629;28;20264;-80
2023/02/18 00:31:52;;;;;;;3.83;1.07;;;;;;;6.68;72.33;101423.28;5027953;28;20202;-80
2023/02/18 00:34:18;;;;;;;3.37;1.00;;;;;;;6.79;72.39;101426.00;5026523;28;20913;-80
2023/02/18 00:36:44;;;;;;;3.87;0.90;;;;;;;6.80;72.25;101448.50;5027002;28;20268;-80
2023/02/18 00:39:12;;;;;;;2.93;0.80;;;;;;;6.66;72.59;101447.44;5025034;28;20199;-79
2023/02/18 00:41:41;;;;;;;6.30;1.27;;;;;;;6.61;73.46;101438.72;5025290;28;20210;-80
2023/02/18 00:44:08;;;;;;;4.50;1.27;;;;;;;6.61;73.96;101429.22;5033196;28;20253;-79
2023/02/18 00:46:36;;;;;;;3.73;1.10;;;;;;;6.59;73.81;101411.91;5034970;28;20237;-80
2023/02/18 00:49:03;;;;;;;3.03;1.33;;;;;;;6.58;73.92;101405.84;5034839;28;20198;-80
2023/02/18 00:51:29;;;;;;;3.80;1.43;;;;;;;6.69;73.03;101408.56;5034705;28;20198;-79
2023/02/18 00:53:56;;;;;;;3.70;0.90;;;;;;;6.74;73.06;101417.28;5031905;28;20222;-80
2023/02/18 00:56:23;;;;;;;3.97;1.10;;;;;;;6.72;72.28;101411.22;5023723;28;20704;-80
2023/02/18 00:58:51;;;;;;;4.30;1.10;;;;;;;6.75;72.41;101434.59;5025523;28;20233;-81
2023/02/18 01:01:19;;;;;;;3.57;1.10;;;;;;;6.62;73.47;101433.56;5021872;28;20217;-79
2023/02/18 01:03:46;;;;;;;4.07;1.00;;;;;;;6.68;73.17;101431.06;5026050;28;20197;-81
2023/02/18 01:06:13;;;;;;;4.83;1.17;;;;;;;6.78;71.71;101425.97;5026490;28;20290;-79
2023/02/18 01:08:40;;;;;;;3.07;1.07;;;;;;;6.70;73.14;101444.91;5032066;28;20205;-80
2023/02/18 01:11:10;;;;;;;3.60;1.10;;;;;;;6.64;74.29;101430.97;5030705;28;20244;-80
2023/02/18 01:13:37;;;;;;;4.60;1.27;;;;;;;6.50;75.36;101402.25;5034684;28;20226;-80
2023/02/18 01:16:05;;;;;;;3.20;0.80;;;;;;;6.49;74.37;101387.56;5034466;28;20229;-81
2023/02/18 01:18:31;;;;;;;2.67;1.00;;;;;;;6.60;74.07;101378.19;5034504;28;20198;-80
2023/02/18 01:20:59;;;;;;;2.77;1.30;;;;;;;6.53;75.36;101374.63;5034847;28;20209;-79
2023/02/18 01:23:26;;;;;;;4.20;0.80;;;;;;;6.60;74.40;101365.22;5035100;28;20206;-80
2023/02/18 01:25:55;;;;;;;4.80;1.53;;;;;;;6.64;74.23;101374.78;5034700;28;20222;-80
2023/02/18 01:28:24;;;;;;;3.37;0.70;;;;;;;6.75;74.25;101377.50;5034349;28;20202;-80
2023/02/18 01:30:50;;;;;;;3.20;0.87;;;;;;;6.81;74.54;101377.56;5034436;28;20198;-81
2023/02/18 01:33:18;;;;;;;3.97;1.07;;;;;;;6.81;74.58;101372.38;5033892;28;20234;-80
2023/02/18 01:35:44;;;;;;;3.37;0.80;;;;;;;6.87;74.34;101371.59;5046549;22;20785;-76
2023/02/18 01:38:11;;;;;;;2.03;0.80;;;;;;;6.81;75.02;101368.94;5027526;28;20261;-76
2023/02/18 01:40:45;;;;;;;4.10;1.03;;;;;;;6.88;74.18;101376.81;5021914;28;20616;-76
2023/02/18 01:43:13;;;;;;;4.00;1.13;;;;;;;6.86;74.47;101377.66;5020404;28;20194;-76
2023/02/18 01:45:53;;;;;;;2.47;1.10;;;;;;;6.85;74.02;101379.34;5021903;28;20224;-76
2023/02/18 01:48:26;;;;;;;5.83;0.93;;;;;;;6.88;75.37;101362.97;5022136;28;20210;-76
2023/02/18 01:50:56;;;;;;;1.70;0.67;;;;;;;6.98;74.78;101351.81;5021784;28;20207;-76
2023/02/18 01:53:27;;;;;;;4.90;1.10;;;;;;;7.07;74.42;101338.91;5019939;28;20218;-76
2023/02/18 01:55:55;;;;;;;3.20;1.33;;;;;;;7.04;75.05;101344.09;5020105;28;20222;-76
2023/02/18 01:58:21;;;;;;;5.83;1.07;;;;;;;7.05;75.03;101345.81;5019730;28;20203;-76
2023/02/18 02:00:48;;;;;;;5.43;1.47;;;;;;;7.04;75.42;101336.31;5021155;28;20256;-76
2023/02/18 02:03:14;;;;;;;4.57;1.20;;;;;;;7.02;75.80;101319.84;5021514;28;20241;-76
2023/02/18 02:05:42;;;;;;;3.37;1.10;;;;;;;6.94;76.51;101305.94;5019769;28;20222;-76
2023/02/18 02:08:08;;;;;;;4.53;1.10;;;;;;;6.97;76.76;101282.56;5021356;28;20198;-76
2023/02/18 02:10:50;;;;;;;5.20;1.13;;;;;;;7.04;77.22;101263.63;5024221;28;20203;-76
2023/02/18 02:13:26;;;;;;;6.17;1.33;;;;;;;7.09;77.65;101235.94;5025382;28;20312;-76
2023/02/18 02:15:58;;;;;;;3.13;1.27;;;;;;;6.96;79.33;101201.25;5025000;28;20288;-76
2023/02/18 02:18:38;;;;;;;4.10;1.67;;;;;;;7.03;80.05;101167.56;5023778;28;20557;-76
2023/02/18 02:21:32;;;;;;;5.03;1.77;;;;;;;7.04;80.83;101123.44;5023677;28;20628;-76
2023/02/18 02:24:18;;;;;;;5.43;1.40;;;;;;;7.11;80.91;101093.19;5025010;28;20722;-76
2023/02/18 02:27:11;;;;;;;5.47;2.07;;;;;;;7.16;81.29;101074.19;5023241;28;20222;-76
2023/02/18 02:30:12;;;;;;;4.93;1.50;;;;;;;6.95;81.91;101064.53;5023718;28;20206;-76
2023/02/18 02:33:09;;;;;;;8.20;2.20;;;;;;;7.03;82.30;101036.03;5024461;28;20216;-76
2023/02/18 02:35:42;;;;;;;7.97;1.60;;;;;;;7.18;82.49;101035.25;5012739;28;20226;-76
2023/02/18 02:38:18;;;;;;;4.57;2.17;;;;;;;7.05;83.06;101039.50;5025208;28;20210;-76
2023/02/18 02:40:47;;;;;;;5.83;2.47;;;;;;;7.16;82.93;101030.06;5027284;28;20210;-76
2023/02/18 02:43:25;;;;;;;6.17;2.10;;;;;;;7.16;83.70;101011.03;5022834;28;20202;-77
2023/02/18 02:45:59;;;;;;;6.00;2.83;;;;;;;7.05;83.88;100997.97;5022917;28;20214;-76
2023/02/18 02:48:32;;;;;;;6.90;2.60;;;;;;;7.07;84.55;100974.63;5024721;28;20256;-76
2023/02/18 02:51:06;;;;;;;7.27;2.97;;;;;;;7.09;84.80;100963.38;5026818;28;20220;-76
2023/02/18 02:53:36;;;;;;;6.73;3.70;;;;;;;7.08;85.37;100966.00;5033990;28;20222;-76
2023/02/18 02:56:02;;;;;;;5.53;3.70;;;;;;;7.08;85.81;100943.50;5034079;28;20280;-76
2023/02/18 02:58:29;;;;;;;6.80;3.63;;;;;;;7.02;87.76;100924.44;5034024;28;20267;-76
2023/02/18 03:01:17;;;;;;;8.63;4.03;;;;;;;6.96;88.63;100883.75;5033700;28;20213;-76
2023/02/18 03:04:13;;;;;;;8.27;4.13;;;;;;;6.99;89.62;100863.00;5033873;28;20738;-76
2023/02/18 03:07:01;;;;;;;6.93;4.87;;;;;;;6.99;90.42;100826.66;5033750;28;20792;-76
2023/02/18 03:09:36;;;;;;;7.77;5.17;;;;;;;6.99;90.75;100802.44;5033621;28;21008;-76
2023/02/18 03:12:11;;;;;;;8.43;5.00;;;;;;;6.96;92.20;100775.63;5033839;28;20555;-76
2023/02/18 03:14:52;;;;;;;11.60;5.50;;;;;;;7.08;92.00;100773.91;5033708;28;20272;-76
2023/02/18 03:17:24;;;;;;;10.67;5.20;;;;;;;7.04;92.22;100754.00;5033760;28;20221;-76
2023/02/18 03:19:57;;;;;;;11.23;6.30;;;;;;;7.07;92.53;100748.81;5033544;28;20243;-76
2023/02/18 03:22:29;;;;;;;12.23;5.47;;;;;;;7.12;92.97;100745.34;5033516;28;20206;-76
2023/02/18 03:24:57;;;;;;;11.97;7.23;;;;;;;7.02;94.29;100722.00;5033049;28;20271;-76
2023/02/18 03:27:28;;;;;;;9.13;5.97;;;;;;;7.11;93.86;100720.25;5033525;28;20226;-76
2023/02/18 03:29:59;;;;;;;13.90;7.23;;;;;;;7.19;94.11;100720.25;5033565;28;20210;-76
2023/02/18 03:32:28;;;;;;;11.20;6.83;;;;;;;7.26;93.28;100723.72;5033557;28;20353;-76
2023/02/18 03:35:00;;;;;;;10.50;6.93;;;;;;;7.36;92.72;100728.03;5033362;28;20226;-76
2023/02/18 03:37:30;;;;;;;11.53;7.23;;;;;;;7.35;92.10;100729.78;5033129;28;20283;-76
2023/02/18 03:40:00;;;;;;;11.70;6.87;;;;;;;7.46;91.65;100744.47;5033072;28;20668;-76
2023/02/18 03:42:27;;;;;;;11.40;6.37;;;;;;;7.54;90.81;100759.16;5032994;28;20206;-76
2023/02/18 03:44:53;;;;;;;9.97;5.50;;;;;;;7.59;90.95;100758.28;5033222;28;20202;-76
2023/02/18 03:47:20;;;;;;;10.10;5.77;;;;;;;7.63;91.47;100755.69;5032945;28;20643;-76
2023/02/18 03:49:46;;;;;;;9.93;6.07;;;;;;;7.61;91.23;100762.63;5033275;28;20210;-76
2023/02/18 03:52:12;;;;;;;12.97;6.33;;;;;;;7.62;90.40;100777.34;5032913;28;20206;-76
2023/02/18 03:54:41;;;;;;;13.97;5.93;;;;;;;7.53;90.30;100796.41;5032727;28;20743;-76
2023/02/18 03:57:07;;;;;;;8.57;5.60;;;;;;;7.54;89.70;100810.25;5032592;28;20222;-76
2023/02/18 03:59:34;;;;;;;7.83;5.07;;;;;;;7.59;89.52;100823.22;5032941;28;20206;-76
2023/02/18 04:02:01;;;;;;;9.53;5.33;;;;;;;7.62;89.68;100823.25;5032871;28;20276;-76
2023/02/18 04:04:28;;;;;;;9.63;5.50;;;;;;;7.62;89.84;100818.06;5032613;28;20209;-76
2023/02/18 04:06:54;;;;;;;9.10;6.57;;;;;;;7.61;90.40;100811.09;5032489;28;20233;-76
2023/02/18 04:09:21;;;;;;;8.80;6.03;;;;;;;7.70;90.47;100795.53;5032430;28;20573;-76
2023/02/18 04:11:48;;;;;;;8.40;6.07;;;;;;;7.76;90.54;100798.97;5032612;28;20256;-76
2023/02/18 04:14:15;;;;;;;10.13;7.37;;;;;;;7.75;90.51;100786.84;5032422;28;20225;-76
2023/02/18 04:16:42;;;;;;;13.03;9.90;;;;;;;7.78;92.35;100756.53;5032762;28;20279;-76
2023/02/18 04:19:08;;;;;;;13.17;9.70;;;;;;;7.82;92.97;100721.88;5032574;28;20762;-76
2023/02/18 04:21:34;;;;;;;16.97;10.77;;;;;;;7.81;94.98;100689.81;5032411;28;20206;-76
2023/02/18 04:24:01;;;;;;;10.47;9.37;;;;;;;7.90;94.76;100660.31;5032377;28;20206;-76
2023/02/18 04:26:27;;;;;;;13.10;9.53;;;;;;;7.97;95.11;100675.03;5032260;28;20651;-76
2023/02/18 04:28:55;;;;;;;11.93;10.27;;;;;;;7.96;95.92;100649.91;5032513;28;20206;-76
2023/02/18 04:31:22;;;;;;;12.83;10.43;;;;;;;7.96;96.42;100637.75;5032319;28;20213;-76
2023/02/18 04:33:48;;;;;;;12.67;9.57;;;;;;;7.88;98.10;100603.16;5032083;28;20212;-76
2023/02/18 04:36:15;;;;;;;8.60;7.57;;;;;;;7.77;99.51;100578.97;5031358;28;20229;-76
2023/02/18 04:38:42;;;;;;;11.53;7.90;;;;;;;7.84;98.95;100572.84;5031826;28;20218;-76
2023/02/18 04:41:08;;;;;;;14.83;10.27;;;;;;;7.81;99.01;100559.91;5032117;28;20209;-76
2023/02/18 04:43:35;;;;;;;9.47;7.20;;;;;;;7.83;99.42;100557.25;5031777;28;20694;-76
2023/02/18 04:46:02;;;;;;;9.23;6.97;;;;;;;7.89;99.36;100559.84;5031992;28;20229;-76
2023/02/18 04:48:29;;;;;;;13.80;9.43;;;;;;;7.82;100.00;100551.22;5032207;28;20252;-76
2023/02/18 04:50:55;;;;;;;10.53;7.77;;;;;;;7.87;99.41;100541.66;5031858;28;20214;-76
2023/02/18 04:53:21;;;;;;;10.27;7.80;;;;;;;7.92;99.67;100544.22;5031393;28;20209;-76
2023/02/18 04:55:50;;;;;;;10.40;8.13;;;;;;;7.91;99.50;100548.56;5031950;28;20387;-77
2023/02/18 04:58:16;;;;;;;11.23;7.83;;;;;;;7.95;99.23;100547.66;5031774;28;20703;-76
2023/02/18 05:00:43;;;;;;;12.60;8.23;;;;;;;7.93;98.82;100552.03;5031934;28;20287;-76
2023/02/18 05:03:10;;;;;;;13.17;8.10;;;;;;;7.90;99.27;100546.81;5031574;28;20267;-76
2023/02/18 05:05:37;;;;;;;10.87;8.70;;;;;;;7.91;99.25;100537.31;5031710;28;20268;-76
2023/02/18 05:08:03;;;;;;;14.17;9.63;;;;;;;7.95;99.45;100541.63;5031356;28;20292;-76
2023/02/18 05:10:30;;;;;;;15.40;9.53;;;;;;;7.92;99.78;100539.03;5031503;28;20746;-76
2023/02/18 05:12:56;;;;;;;10.47;9.37;;;;;;;7.96;100.00;100527.72;5031580;28;20202;-76
2023/02/18 05:15:23;;;;;;;13.57;10.00;;;;;;;7.97;100.00;100529.47;5031644;28;20251;-76
2023/02/18 05:17:49;;;;;;;12.70;10.43;;;;;;;7.98;99.63;100527.72;5031645;28;20214;-76
2023/02/18 05:20:17;;;;;;;17.27;11.00;;;;;;;7.99;100.00;100519.03;5031519;28;20206;-76
2023/02/18 05:22:43;;;;;;;12.10;10.60;;;;;;;7.99;100.00;100516.44;5031094;28;20672;-76
2023/02/18 05:25:10;;;;;;;13.53;10.30;;;;;;;8.00;100.00;100506.03;5031586;28;20198;-76
2023/02/18 05:27:36;;;;;;;11.13;10.03;;;;;;;7.98;100.00;100509.53;5031585;28;20263;-76
2023/02/18 05:30:03;;;;;;;12.60;11.30;;;;;;;7.94;100.00;100498.28;5031453;28;20214;-76
2023/02/18 05:32:29;;;;;;;12.70;11.40;;;;;;;7.96;100.00;100491.34;5031050;28;20571;-76
2023/02/18 05:34:56;;;;;;;11.90;10.70;;;;;;;7.95;100.00;100480.09;5031390;28;20272;-76
2023/02/18 05:37:23;;;;;;;12.13;11.03;;;;;;;7.97;100.00;100485.28;5030888;28;20726;-76
2023/02/18 05:39:50;;;;;;;13.10;11.37;;;;;;;8.00;100.00;100471.41;5031317;28;20272;-76
2023/02/18 05:42:16;;;;;;;12.83;11.53;;;;;;;8.00;100.00;100469.66;5031087;28;20216;-75
2023/02/18 05:44:42;;;;;;;15.20;11.53;;;;;;;8.02;100.00;100469.66;5031435;28;20206;-76
2023/02/18 05:47:11;;;;;;;13.67;12.27;;;;;;;8.04;100.00;100466.16;5033225;28;20782;-76
2023/02/18 05:49:38;;;;;;;24.90;17.73;;;;;;;7.81;100.00;100413.50;5035061;28;20217;-76
2023/02/18 05:52:05;;;;;;;21.30;16.07;;;;;;;7.91;100.00;100373.59;5035253;28;20205;-76
2023/02/18 05:54:33;;;;;;;16.77;14.73;;;;;;;7.75;100.00;100342.53;5034839;28;20789;-76
2023/02/18 05:56:59;;;;;;;28.27;18.10;;;;;;;7.68;100.00;100321.81;5035106;28;20229;-76
2023/02/18 05:59:26;;;;;;;17.57;14.50;;;;;;;7.63;100.00;100306.28;5035142;28;20267;-76
2023/02/18 06:01:52;;;;;;;22.03;17.53;;;;;;;7.60;100.00;100287.25;5034969;28;20213;-76
2023/02/18 06:04:19;;;;;;;21.97;16.50;;;;;;;7.68;100.00;100275.03;5034591;28;20209;-76
2023/02/18 06:06:45;;;;;;;25.57;15.47;;;;;;;7.71;100.00;100286.28;5034647;28;20249;-76
2023/02/18 06:09:12;;;;;;;25.30;17.60;;;;;;;7.69;100.00;100277.63;5034306;28;20213;-76
2023/02/18 06:11:40;;;;;;;19.80;15.60;;;;;;;7.74;100.00;100283.63;5034838;28;20210;-76
2023/02/18 06:14:06;;;;;;;27.87;16.27;;;;;;;7.83;100.00;100295.69;5034379;28;20237;-76
2023/02/18 06:16:32;;;;;;;20.70;14.40;;;;;;;7.81;100.00;100304.34;5034629;28;20280;-76
2023/02/18 06:18:59;;;;;;;19.23;14.80;;;;;;;7.86;100.00;100295.63;5034575;28;20723;-76
2023/02/18 06:21:26;;;;;;;21.83;14.33;;;;;;;7.99;100.00;100292.91;5034542;28;20830;-76
2023/02/18 06:23:52;;;;;;;19.37;14.87;;;;;;;7.99;100.00;100299.00;5034547;28;20260;-76
2023/02/18 06:26:19;;;;;;;18.43;14.87;;;;;;;8.01;100.00;100294.63;5034615;28;20284;-76
2023/02/18 06:28:46;;;;;;;14.97;13.33;;;;;;;8.05;100.00;100288.53;5034797;28;20202;-76
2023/02/18 06:31:13;;;;;;;14.23;12.67;;;;;;;8.08;100.00;100309.28;5033800;28;20213;-75
2023/02/18 06:33:39;;;;;;;17.33;14.73;;;;;;;8.11;100.00;100300.59;5034139;28;20672;-76
2023/02/18 06:36:10;;;;;;;16.57;14.87;;;;;;;8.16;100.00;100306.59;5034232;28;20234;-76
2023/02/18 06:38:39;;;;;;;14.07;12.67;;;;;;;8.20;100.00;100310.03;5034398;28;20209;-76
2023/02/18 06:41:05;;;;;;;18.27;14.97;;;;;;;8.20;100.00;100320.41;5032865;28;20634;-76
2023/02/18 06:43:32;;;;;;;18.47;15.47;;;;;;;8.25;100.00;100327.28;5034138;28;20637;-76
2023/02/18 06:45:59;;;;;;;16.00;14.33;;;;;;;8.31;100.00;100329.81;5034181;28;20280;-76
2023/02/18 06:48:26;;;;;;;17.37;14.20;;;;;;;8.31;100.00;100331.56;5034227;28;20256;-76
2023/02/18 06:50:52;;;;;;;15.90;12.47;;;;;;;8.32;100.00;100328.97;5033973;28;20635;-76
2023/02/18 06:53:19;;;;;;;14.63;13.13;;;;;;;8.29;100.00;100326.38;5033867;28;20206;-76
2023/02/18 06:55:46;;;;;;;15.90;12.53;;;;;;;8.34;100.00;100310.72;5033170;28;20280;-76
2023/02/18 06:58:13;;;;;;;12.77;11.57;;;;;;;8.33;100.00;100301.22;5033122;28;20247;-76
2023/02/18 07:00:39;;;;;;;12.53;11.30;;;;;;;8.33;100.00;100296.84;5033965;28;20268;-76
2023/02/18 07:03:07;;;;;;;11.30;10.27;;;;;;;8.34;100.00;100295.09;5033671;28;20208;-76
2023/02/18 07:05:34;;;;;;;14.53;11.80;;;;;;;8.37;100.00;100289.03;5033732;28;20225;-76
2023/02/18 07:08:01;;;;;;;13.53;9.60;;;;;;;8.42;100.00;100293.31;5033643;28;20631;-76
2023/02/18 07:10:27;;;;;;;11.73;10.10;;;;;;;8.39;100.00;100280.31;5033360;28;20203;-76
2023/02/18 07:12:53;;;;;;;8.90;8.00;;;;;;;8.40;100.00;100257.75;5033137;28;20615;-76
2023/02/18 07:15:23;;;;;;;9.50;8.40;;;;;;;8.41;100.00;100225.69;5033621;28;20230;-76
2023/02/18 07:17:49;;;;;;;8.57;7.37;;;;;;;8.44;100.00;100210.06;5033461;28;20599;-76
2023/02/18 07:20:17;;;;;;;7.40;6.70;;;;;;;8.48;100.00;100193.53;5033589;28;20750;-76
2023/02/18 07:22:44;;;;;;;7.07;6.37;;;;;;;8.57;100.00;100188.19;5033089;28;20213;-76
2023/02/18 07:25:10;;;;;;;8.90;6.77;;;;;;;8.67;100.00;100175.91;5033206;28;20233;-76
2023/02/18 07:27:36;;;;;;;7.40;6.57;;;;;;;8.78;100.00;100175.72;5033303;28;20276;-77
2023/02/18 07:30:04;;;;;;;7.97;6.63;;;;;;;8.82;100.00;100152.25;5033476;28;20261;-76
2023/02/18 07:32:30;;;;;;;8.50;7.40;;;;;;;8.89;100.00;100142.59;5032800;28;20269;-76
2023/02/18 07:34:56;;;;;;;6.70;6.10;;;;;;;8.98;100.00;100133.75;5033195;28;20229;-76
2023/02/18 07:37:33;;;;;;;7.00;6.33;;;;;;;9.02;100.00;100140.63;5057709;22;20269;-79
2023/02/18 07:40:02;;;;;;;5.90;5.30;;;;;;;9.07;100.00;100134.47;5035771;28;20214;-80
2023/02/18 07:42:31;;;;;;;6.73;6.03;;;;;;;9.11;100.00;100130.91;5042523;28;20627;-80
2023/02/18 07:45:06;;;;;;;7.13;6.40;;;;;;;9.21;100.00;100125.53;5036827;28;20213;-80
2023/02/18 07:47:34;;;;;;;6.50;5.83;;;;;;;9.21;100.00;100135.97;5037039;28;20229;-80
2023/02/18 07:50:07;;;;;;;6.63;5.93;;;;;;;9.25;100.00;100146.28;5036882;28;20210;-80
2023/02/18 07:52:37;;;;;;;5.70;5.10;;;;;;;9.23;100.00;100144.59;5036304;28;20190;-80
2023/02/18 07:55:06;;;;;;;5.37;4.43;;;;;;;9.29;100.00;100147.94;5035901;28;20286;-80
2023/02/18 07:57:55;;;;;;;5.70;4.50;;;;;;;9.32;100.00;100134.88;5035974;28;20241;-79
2023/02/18 08:00:19;;;;;;;4.83;4.37;;;;;;;9.29;100.00;100145.34;5035036;28;20276;-79
2023/02/18 08:02:46;;;;;;;6.03;5.43;;;;;;;9.34;100.00;100137.47;5036101;28;20355;-79
2023/02/18 08:05:12;;;;;;;4.37;3.97;;;;;;;9.33;100.00;100140.94;5035908;28;20205;-79
2023/02/18 08:07:41;;;;;;;3.37;3.07;;;;;;;9.34;100.00;100137.47;5036005;28;20324;-80
2023/02/18 08:10:07;;;;;;;3.83;2.70;;;;;;;9.41;100.00;100144.25;5016848;28;20207;-79
2023/02/18 08:12:34;;;;;;;3.27;2.60;;;;;;;9.41;100.00;100128.63;5026325;28;20213;-79
2023/02/18 08:15:00;;;;;;;2.60;2.40;;;;;;;9.41;100.00;100131.22;5034617;28;20272;-79
2023/02/18 08:17:26;;;;;;;2.03;1.67;;;;;;;9.44;100.00;100132.94;5034180;28;20283;-78
2023/02/18 08:19:53;;;;;;;1.47;1.37;;;;;;;9.47;100.00;100135.47;5034683;28;20210;-78
2023/02/18 08:22:19;;;;;;;2.10;1.20;;;;;;;9.49;100.00;100145.00;5034008;28;20700;-79
2023/02/18 08:24:47;;;;;;;1.20;1.10;;;;;;;9.47;100.00;100140.69;5035118;28;20884;-79
2023/02/18 08:27:13;;;;;;;1.57;1.13;;;;;;;9.53;100.00;100133.63;5034859;28;20226;-79
2023/02/18 08:29:39;;;;;;;1.10;1.00;;;;;;;9.50;100.00;100132.81;5032983;28;20217;-78
2023/02/18 08:32:06;;;;;;;1.00;0.90;;;;;;;9.44;100.00;100133.78;5006816;28;20211;-79
2023/02/18 08:34:32;;;;;;;1.20;0.70;;;;;;;9.48;100.00;100126.78;5003507;28;20718;-78
2023/02/18 08:36:58;;;;;;;1.50;0.80;;;;;;;9.47;100.00;100138.06;5003705;28;20660;-79
2023/02/18 08:39:25;;;;;;;0.80;0.80;;;;;;;9.52;100.00;100133.63;5006443;28;20207;-79
2023/02/18 08:41:53;;;;;;;0.73;0.73;;;;;;;9.57;100.00;100141.34;5009731;28;20199;-78
2023/02/18 08:44:19;;;;;;;0.70;0.70;;;;;;;9.57;100.00;100130.94;5004256;28;20245;-79
2023/02/18 08:46:47;;;;;;;0.50;0.50;;;;;;;9.53;100.00;100132.75;5004757;28;20222;-79
2023/02/18 08:49:13;;;;;;;0.60;0.60;;;;;;;9.55;100.00;100130.97;5003343;28;20211;-79
2023/02/18 08:51:39;;;;;;;0.50;0.50;;;;;;;9.60;100.00;100133.50;5003631;28;20207;-78
2023/02/18 08:54:06;;;;;;;0.70;0.70;;;;;;;9.67;100.00;100135.06;5004594;28;20211;-79
2023/02/18 08:56:32;;;;;;;1.03;0.60;;;;;;;9.73;100.00;100145.38;5004000;28;20590;-78
2023/02/18 08:59:00;;;;;;;0.60;0.60;;;;;;;9.79;100.00;100140.06;5001701;28;20203;-79
2023/02/18 09:01:26;;;;;;;1.23;0.60;;;;;;;9.77;100.00;100140.97;5003548;28;20206;-78
2023/02/18 09:03:53;;;;;;;0.70;0.70;;;;;;;9.81;100.00;100145.22;5002364;28;20194;-78
2023/02/18 09:06:19;;;;;;;0.83;0.83;;;;;;;9.81;100.00;100151.31;5004081;28;20253;-79
2023/02/18 09:08:46;;;;;;;0.80;0.80;;;;;;;9.89;100.00;100144.19;5001633;28;20204;-79
2023/02/18 09:11:12;;;;;;;0.50;0.50;;;;;;;9.91;100.00;100144.13;5013978;28;20207;-78
2023/02/18 09:13:38;;;;;;;0.50;0.50;;;;;;;9.93;100.00;100147.59;5013372;28;20582;-78
2023/02/18 09:16:10;;;;;;;0.40;0.40;;;;;;;9.97;100.00;100138.81;5013131;28;20218;-78
2023/02/18 09:18:36;;;;;;;0.60;0.60;;;;;;;9.96;100.00;100152.72;5014422;28;20213;-78
2023/02/18 09:21:05;;;;;;;0.60;0.60;;;;;;;10.00;100.00;100123.09;5013079;28;20203;-79
2023/02/18 09:23:33;;;;;;;0.50;0.43;;;;;;;10.01;100.00;100139.56;5013385;28;20253;-78
2023/02/18 09:26:00;;;;;;;0.60;0.60;;;;;;;10.05;100.00;100133.41;5013441;28;20210;-78
2023/02/18 09:28:27;;;;;;;0.50;0.50;;;;;;;10.09;100.00;100140.31;5014052;28;20261;-79
2023/02/18 09:30:53;;;;;;;1.40;0.50;;;;;;;10.03;100.00;100136.06;5014614;28;20214;-83
2023/02/18 09:33:21;;;;;;;0.63;0.63;;;;;;;10.09;100.00;100132.47;5014529;28;20226;-80
2023/02/18 09:35:47;;;;;;;0.50;0.50;;;;;;;10.12;100.00;100148.03;5014024;28;20227;-79
2023/02/18 09:38:16;;;;;;;0.30;0.30;;;;;;;10.17;100.00;100153.16;5011364;28;20235;-80
2023/02/18 09:40:45;;;;;;;0.40;0.40;;;;;;;10.17;100.00;100168.78;5017783;28;20276;-80
2023/02/18 09:43:22;;;;;;;0.80;0.80;;;;;;;10.17;100.00;100161.84;5031404;28;20208;-80
2023/02/18 09:45:49;;;;;;;0.60;0.60;;;;;;;10.21;100.00;100163.50;5032058;28;20668;-81
2023/02/18 09:48:16;;;;;;;0.70;0.70;;;;;;;10.20;100.00;100177.41;5033960;28;20203;-79
2023/02/18 09:50:52;;;;;;;0.53;0.53;;;;;;;10.24;100.00;100173.84;5033244;28;20245;-80
2023/02/18 09:53:19;;;;;;;0.60;0.60;;;;;;;10.27;100.00;100171.19;5033548;28;20256;-80
2023/02/18 09:55:45;;;;;;;1.40;1.30;;;;;;;10.20;100.00;100168.75;5033493;28;20303;-80
2023/02/18 09:58:15;;;;;;;2.20;2.03;;;;;;;10.20;100.00;100151.34;5033709;28;20226;-79
2023/02/18 10:00:44;;;;;;;1.20;1.10;;;;;;;10.25;100.00;100187.78;5034806;28;20206;-80
2023/02/18 10:03:14;;;;;;;1.60;1.50;;;;;;;10.19;100.00;100165.28;5032982;28;20264;-80
2023/02/18 10:05:57;;;;;;;1.33;1.23;;;;;;;10.22;100.00;100159.97;5033988;28;20241;-80
2023/02/18 10:08:27;;;;;;;2.00;1.90;;;;;;;10.21;100.00;100162.63;5033961;28;20688;-80
2023/02/18 10:10:53;;;;;;;1.20;1.20;;;;;;;10.24;100.00;100162.56;5025993;28;20202;-80
2023/02/18 10:13:22;;;;;;;1.13;1.13;;;;;;;10.18;100.00;100154.88;5017030;28;20206;-81
2023/02/18 10:15:50;;;;;;;2.10;2.00;;;;;;;10.11;100.00;100131.53;5033953;28;20225;-79
2023/02/18 10:18:25;;;;;;;2.00;1.90;;;;;;;10.13;100.00;100142.78;5032266;28;20680;-80
2023/02/18 10:20:57;;;;;;;2.00;1.90;;;;;;;10.17;100.00;100137.50;5033503;28;20564;-78
2023/02/18 10:23:25;;;;;;;1.87;1.77;;;;;;;10.19;100.00;100152.25;5033250;28;20345;-79
2023/02/18 10:25:52;;;;;;;1.80;1.70;;;;;;;10.23;100.00;100147.81;5031116;28;20210;-77
2023/02/18 10:28:22;;;;;;;2.10;2.00;;;;;;;10.32;100.00;100173.72;5032011;28;20214;-79
2023/02/18 10:30:57;;;;;;;1.70;1.60;;;;;;;10.37;100.00;100184.06;5032224;28;20206;-79
2023/02/18 10:33:34;;;;;;;1.87;1.77;;;;;;;10.42;100.00;100172.63;5032669;28;20675;-78
2023/02/18 10:36:11;;;;;;;2.07;1.77;;;;;;;10.42;100.00;100193.47;5034770;28;20225;-78
2023/02/18 10:38:50;;;;;;;1.90;1.80;;;;;;;10.39;100.00;100198.78;5035482;28;20204;-80
2023/02/18 10:41:27;;;;;;;1.90;1.80;;;;;;;10.42;100.00;100203.06;5028289;28;20857;-79
2023/02/18 10:44:04;;;;;;;2.10;1.90;;;;;;;10.39;100.00;100206.63;5034818;28;20213;-79
2023/02/18 10:46:44;;;;;;;2.00;1.90;;;;;;;10.40;100.00;100191.81;5036175;28;20268;-79
2023/02/18 10:49:31;;;;;;;2.10;2.00;;;;;;;10.30;100.00;100204.19;5036247;28;20210;-80
2023/02/18 10:52:01;;;;;;;2.00;1.90;;;;;;;10.25;100.00;100179.94;5035523;28;20209;-79
2023/02/18 10:54:48;;;;;;;2.17;2.07;;;;;;;10.12;100.00;100161.94;5036023;28;20210;-79
2023/02/18 10:57:19;;;;;;;2.60;2.40;;;;;;;10.00;100.00;100124.84;5035418;28;20237;-80
2023/02/18 10:59:55;;;;;;;2.30;2.20;;;;;;;9.98;100.00;100111.84;5035694;28;20767;-78
2023/02/18 11:02:25;;;;;;;2.37;2.20;;;;;;;9.99;100.00;100100.53;5035091;28;20213;-78
2023/02/18 11:04:52;;;;;;;2.40;2.30;;;;;;;10.02;100.00;100097.84;5034976;28;20206;-79
2023/02/18 11:07:22;;;;;;;3.23;3.03;;;;;;;10.04;100.00;100103.88;5035261;28;20268;-79
2023/02/18 11:09:53;;;;;;;2.80;2.60;;;;;;;10.07;100.00;100134.25;5028373;28;20735;-79
2023/02/18 11:15:59;;;;;;;3.23;3.03;;;;;;;10.06;100.00;100153.38;5026759;28;20263;-79
2023/02/18 11:18:32;;;;;;;3.53;3.33;;;;;;;10.10;100.00;100166.31;5015418;28;20289;-78
2023/02/18 11:21:01;;;;;;;3.00;2.80;;;;;;;10.05;100.00;100176.00;5015267;28;20212;-79
2023/02/18 11:23:27;;;;;;;2.97;2.77;;;;;;;10.06;100.00;100142.97;5015231;28;20211;-80
2023/02/18 11:26:01;;;;;;;3.23;3.03;;;;;;;9.96;100.00;100157.09;5015045;28;20264;-79
2023/02/18 11:28:42;;;;;;;2.70;2.53;;;;;;;9.88;100.00;100139.84;5015535;28;20213;-79
2023/02/18 11:31:11;;;;;;;2.60;2.50;;;;;;;9.94;100.00;100134.50;5015849;28;20712;-78
2023/02/18 11:33:41;;;;;;;2.80;2.60;;;;;;;9.99;100.00;100138.75;5013559;28;20203;-80
2023/02/18 11:36:22;;;;;;;2.67;2.47;;;;;;;9.93;100.00;100144.97;5005657;28;20211;-80